Al-Bouqe, Yemen

2:51 PM AST on September 01, 2014 (GMT +0300)
Nejran | Change Station
CLOSE
Current Station
Airport
Location: Najran,
Elevation: 3976 ft
Nearby Weather Stations

Elev 3976 ft 17.61 °N, 44.42 °E | Updated 51 minutes ago

Scattered Clouds
Scattered Clouds
100 °F
Feels Like 100 °F
N
14
Wind Variable Wind from NNE

Today
High -- | Low -- °F
--% Chance of Precip.
Yesterday
High -- | Low -- °F
Precip. -- in
5:47 AM 6:15 PM
Waxing Crescent, 40% visible
Pressure 29.83 in
Visibility 6.2 miles
Clouds Scattered Clouds 3000 ft
Dew Point 36 °F
Humidity 11%
Rainfall 0.00 in
Snow Depth Not available.
UV 11 out of 12
Pollen Not available.
Air Quality Not available.
Flu Activity Not available.
METAR OENG 011100Z 03012KT 9999 SCT030 38/02 Q1010 NOSIG

More Conditions Fewer Conditions

Pressure 29.83 in
Visibility 6.2 miles
Clouds Scattered Clouds 3000 ft
Dew Point 36 °F
Humidity 11%
Rainfall 0.00 in
Snow Depth Not available.
UV 11 out of 12
Pollen Not available.
Air Quality Not available.
Flu Activity Not available.
METAR OENG 011100Z 03012KT 9999 SCT030 38/02 Q1010 NOSIG

More Conditions Fewer Conditions

10-Day Weather Forecast

Almanac

Astronomy

Sep. 01, 2014 Rise Set
Actual Time 5:47 AM AST 6:15 PM AST
Civil Twilight 5:25 AM AST 6:37 PM AST
Nautical Twilight 5:00 AM AST 7:02 PM AST
Astronomical Twilight 4:34 AM AST 7:28 PM AST
Moon 11:15 AM AST 10:56 PM AST
Length of Visible Light 13h 11m
Length of Day
12h 27m
Tomorrow will be 0m 56s shorter.
Waxing Crescent, 40% of the Moon is Illuminated
Today
Waxing Crescent
Sep 2
First Quarter
Sep 8
Full
Sep 15
Last Quarter
Sep 24
New

Yesterday's Extremes

Country Highs Country Lows

Community

WunderPhotos

Upload Photos

1,749,192 photos uploaded!

Nearby

Snow Depth

Not available.

Earthquake Activity

City Distance Mag. Time & Date
No recent earthquake activity has been reported nearby.
Minimum magnitude displayed is 2.5.

Coastal Water Temperatures

Place Temperature
No Stations Reporting

Nearby Weather Stations